sensor_id;sensor_type;location;lat;lon;timestamp;P1;durP1;ratioP1;P2;durP2;ratioP2
14396;SDS011;50653;47.810;13.022;2023-02-12T00:01:32;11.10;;;8.63;;
14396;SDS011;50653;47.810;13.022;2023-02-12T00:03:58;9.80;;;8.83;;
14396;SDS011;50653;47.810;13.022;2023-02-12T00:06:24;12.43;;;9.47;;
14396;SDS011;50653;47.810;13.022;2023-02-12T00:08:51;13.60;;;9.33;;
14396;SDS011;50653;47.810;13.022;2023-02-12T00:11:22;11.60;;;9.60;;
14396;SDS011;50653;47.810;13.022;2023-02-12T00:13:53;18.87;;;10.00;;
14396;SDS011;50653;47.810;13.022;2023-02-12T00:16:20;10.77;;;8.27;;
14396;SDS011;50653;47.810;13.022;2023-02-12T00:18:50;10.57;;;8.60;;
14396;SDS011;50653;47.810;13.022;2023-02-12T00:21:17;11.77;;;9.33;;
14396;SDS011;50653;47.810;13.022;2023-02-12T00:23:43;17.70;;;10.83;;
14396;SDS011;50653;47.810;13.022;2023-02-12T00:26:09;12.13;;;8.57;;
14396;SDS011;50653;47.810;13.022;2023-02-12T00:28:41;10.53;;;9.20;;
14396;SDS011;50653;47.810;13.022;2023-02-12T00:31:17;12.70;;;8.37;;
14396;SDS011;50653;47.810;13.022;2023-02-12T00:33:46;15.27;;;9.37;;
14396;SDS011;50653;47.810;13.022;2023-02-12T00:36:13;17.63;;;9.73;;
14396;SDS011;50653;47.810;13.022;2023-02-12T00:38:40;11.00;;;9.53;;
14396;SDS011;50653;47.810;13.022;2023-02-12T00:41:08;13.57;;;9.63;;
14396;SDS011;50653;47.810;13.022;2023-02-12T00:43:34;15.57;;;9.47;;
14396;SDS011;50653;47.810;13.022;2023-02-12T00:45:59;12.80;;;10.00;;
14396;SDS011;50653;47.810;13.022;2023-02-12T00:48:25;10.97;;;9.47;;
14396;SDS011;50653;47.810;13.022;2023-02-12T00:50:51;16.57;;;9.00;;
14396;SDS011;50653;47.810;13.022;2023-02-12T00:53:17;10.57;;;8.87;;
14396;SDS011;50653;47.810;13.022;2023-02-12T00:55:43;13.07;;;9.40;;
14396;SDS011;50653;47.810;13.022;2023-02-12T00:58:10;13.83;;;9.80;;
14396;SDS011;50653;47.810;13.022;2023-02-12T01:00:36;17.97;;;8.20;;
14396;SDS011;50653;47.810;13.022;2023-02-12T01:03:02;13.90;;;9.10;;
14396;SDS011;50653;47.810;13.022;2023-02-12T01:05:30;9.73;;;8.80;;
14396;SDS011;50653;47.810;13.022;2023-02-12T01:07:56;12.83;;;9.87;;
14396;SDS011;50653;47.810;13.022;2023-02-12T01:10:22;9.73;;;8.30;;
14396;SDS011;50653;47.810;13.022;2023-02-12T01:12:48;8.23;;;7.53;;
14396;SDS011;50653;47.810;13.022;2023-02-12T01:15:14;17.63;;;12.13;;
14396;SDS011;50653;47.810;13.022;2023-02-12T01:17:41;12.17;;;10.13;;
14396;SDS011;50653;47.810;13.022;2023-02-12T01:20:07;10.03;;;8.30;;
14396;SDS011;50653;47.810;13.022;2023-02-12T01:22:35;12.40;;;8.77;;
14396;SDS011;50653;47.810;13.022;2023-02-12T01:25:01;15.53;;;9.57;;
14396;SDS011;50653;47.810;13.022;2023-02-12T01:27:29;11.90;;;9.10;;
14396;SDS011;50653;47.810;13.022;2023-02-12T01:29:56;13.40;;;9.97;;
14396;SDS011;50653;47.810;13.022;2023-02-12T01:32:22;11.67;;;9.37;;
14396;SDS011;50653;47.810;13.022;2023-02-12T01:34:47;8.13;;;7.53;;
14396;SDS011;50653;47.810;13.022;2023-02-12T01:37:13;8.77;;;7.90;;
14396;SDS011;50653;47.810;13.022;2023-02-12T01:39:39;10.73;;;8.80;;
14396;SDS011;50653;47.810;13.022;2023-02-12T01:42:05;9.40;;;8.17;;
14396;SDS011;50653;47.810;13.022;2023-02-12T01:44:31;12.97;;;9.40;;
14396;SDS011;50653;47.810;13.022;2023-02-12T01:47:00;13.60;;;10.77;;
14396;SDS011;50653;47.810;13.022;2023-02-12T01:49:29;9.47;;;8.57;;
14396;SDS011;50653;47.810;13.022;2023-02-12T01:52:02;14.57;;;9.43;;
14396;SDS011;50653;47.810;13.022;2023-02-12T01:54:34;13.80;;;8.90;;
14396;SDS011;50653;47.810;13.022;2023-02-12T01:57:02;14.30;;;10.43;;
14396;SDS011;50653;47.810;13.022;2023-02-12T01:59:30;9.43;;;8.17;;
14396;SDS011;50653;47.810;13.022;2023-02-12T02:01:57;11.73;;;9.50;;
14396;SDS011;50653;47.810;13.022;2023-02-12T02:04:24;9.63;;;8.63;;
14396;SDS011;50653;47.810;13.022;2023-02-12T02:07:03;16.40;;;11.67;;
14396;SDS011;50653;47.810;13.022;2023-02-12T02:09:30;11.53;;;9.00;;
14396;SDS011;50653;47.810;13.022;2023-02-12T02:11:59;23.27;;;10.87;;
14396;SDS011;50653;47.810;13.022;2023-02-12T02:14:44;15.13;;;10.40;;
14396;SDS011;50653;47.810;13.022;2023-02-12T02:20:12;9.77;;;8.83;;
14396;SDS011;50653;47.810;13.022;2023-02-12T02:23:08;16.27;;;9.77;;
14396;SDS011;50653;47.810;13.022;2023-02-12T02:39:42;12.80;;;8.70;;
14396;SDS011;50653;47.810;13.022;2023-02-12T02:42:15;9.97;;;8.97;;
14396;SDS011;50653;47.810;13.022;2023-02-12T02:44:51;9.70;;;8.50;;
14396;SDS011;50653;47.810;13.022;2023-02-12T02:47:42;9.80;;;8.90;;
14396;SDS011;50653;47.810;13.022;2023-02-12T02:50:12;13.10;;;9.30;;
14396;SDS011;50653;47.810;13.022;2023-02-12T02:52:51;13.07;;;9.80;;
14396;SDS011;50653;47.810;13.022;2023-02-12T02:55:21;11.37;;;8.73;;
14396;SDS011;50653;47.810;13.022;2023-02-12T02:57:57;13.43;;;9.70;;
14396;SDS011;50653;47.810;13.022;2023-02-12T03:00:34;11.47;;;7.70;;
14396;SDS011;50653;47.810;13.022;2023-02-12T03:03:07;12.20;;;9.93;;
14396;SDS011;50653;47.810;13.022;2023-02-12T03:05:39;11.57;;;9.50;;
14396;SDS011;50653;47.810;13.022;2023-02-12T03:10:48;13.27;;;9.40;;
14396;SDS011;50653;47.810;13.022;2023-02-12T03:13:23;14.37;;;9.20;;
14396;SDS011;50653;47.810;13.022;2023-02-12T03:16:04;13.90;;;9.80;;
14396;SDS011;50653;47.810;13.022;2023-02-12T03:18:38;19.20;;;11.17;;
14396;SDS011;50653;47.810;13.022;2023-02-12T03:21:19;10.37;;;8.80;;
14396;SDS011;50653;47.810;13.022;2023-02-12T03:26:23;11.57;;;7.60;;
14396;SDS011;50653;47.810;13.022;2023-02-12T03:28:53;13.03;;;9.87;;
14396;SDS011;50653;47.810;13.022;2023-02-12T03:31:29;14.73;;;10.20;;
14396;SDS011;50653;47.810;13.022;2023-02-12T03:34:19;11.03;;;9.33;;
14396;SDS011;50653;47.810;13.022;2023-02-12T03:36:54;10.27;;;7.93;;
14396;SDS011;50653;47.810;13.022;2023-02-12T03:42:33;12.67;;;9.43;;
14396;SDS011;50653;47.810;13.022;2023-02-12T03:45:09;12.00;;;9.70;;
14396;SDS011;50653;47.810;13.022;2023-02-12T03:47:50;13.60;;;9.63;;
14396;SDS011;50653;47.810;13.022;2023-02-12T03:50:21;11.40;;;10.17;;
14396;SDS011;50653;47.810;13.022;2023-02-12T03:52:55;14.50;;;9.13;;
14396;SDS011;50653;47.810;13.022;2023-02-12T03:55:21;11.80;;;9.27;;
14396;SDS011;50653;47.810;13.022;2023-02-12T03:57:48;10.83;;;7.60;;
14396;SDS011;50653;47.810;13.022;2023-02-12T04:00:19;13.43;;;9.77;;
14396;SDS011;50653;47.810;13.022;2023-02-12T04:02:46;9.63;;;8.73;;
14396;SDS011;50653;47.810;13.022;2023-02-12T04:05:20;9.97;;;8.97;;
14396;SDS011;50653;47.810;13.022;2023-02-12T04:07:48;11.70;;;8.30;;
14396;SDS011;50653;47.810;13.022;2023-02-12T04:10:16;7.63;;;6.90;;
14396;SDS011;50653;47.810;13.022;2023-02-12T04:12:53;13.07;;;9.00;;
14396;SDS011;50653;47.810;13.022;2023-02-12T04:15:36;10.53;;;9.33;;
14396;SDS011;50653;47.810;13.022;2023-02-12T04:18:15;14.07;;;9.10;;
14396;SDS011;50653;47.810;13.022;2023-02-12T04:37:09;14.27;;;9.27;;
14396;SDS011;50653;47.810;13.022;2023-02-12T04:39:41;10.17;;;7.50;;
14396;SDS011;50653;47.810;13.022;2023-02-12T04:42:08;12.77;;;8.90;;
14396;SDS011;50653;47.810;13.022;2023-02-12T04:44:36;12.30;;;9.27;;
14396;SDS011;50653;47.810;13.022;2023-02-12T04:47:03;9.40;;;8.50;;
14396;SDS011;50653;47.810;13.022;2023-02-12T04:49:29;20.20;;;8.47;;
14396;SDS011;50653;47.810;13.022;2023-02-12T04:51:55;10.97;;;8.40;;
14396;SDS011;50653;47.810;13.022;2023-02-12T04:54:21;10.77;;;9.00;;
14396;SDS011;50653;47.810;13.022;2023-02-12T04:56:48;18.27;;;8.70;;
14396;SDS011;50653;47.810;13.022;2023-02-12T04:59:14;15.73;;;9.27;;
14396;SDS011;50653;47.810;13.022;2023-02-12T05:01:40;14.20;;;8.73;;
14396;SDS011;50653;47.810;13.022;2023-02-12T05:04:07;13.67;;;9.30;;
14396;SDS011;50653;47.810;13.022;2023-02-12T05:06:34;11.50;;;9.50;;
14396;SDS011;50653;47.810;13.022;2023-02-12T05:09:00;14.07;;;8.50;;
14396;SDS011;50653;47.810;13.022;2023-02-12T05:11:26;11.53;;;8.60;;
14396;SDS011;50653;47.810;13.022;2023-02-12T05:13:51;13.33;;;9.70;;
14396;SDS011;50653;47.810;13.022;2023-02-12T05:16:18;14.00;;;10.30;;
14396;SDS011;50653;47.810;13.022;2023-02-12T05:18:45;12.63;;;10.90;;
14396;SDS011;50653;47.810;13.022;2023-02-12T05:21:11;27.53;;;17.63;;
14396;SDS011;50653;47.810;13.022;2023-02-12T05:23:37;34.47;;;20.33;;
14396;SDS011;50653;47.810;13.022;2023-02-12T05:26:05;66.00;;;39.37;;
14396;SDS011;50653;47.810;13.022;2023-02-12T05:28:34;31.13;;;20.70;;
14396;SDS011;50653;47.810;13.022;2023-02-12T05:31:00;12.93;;;11.13;;
14396;SDS011;50653;47.810;13.022;2023-02-12T05:33:28;14.20;;;9.70;;
14396;SDS011;50653;47.810;13.022;2023-02-12T05:35:53;17.30;;;9.60;;
14396;SDS011;50653;47.810;13.022;2023-02-12T05:38:19;14.57;;;9.97;;
14396;SDS011;50653;47.810;13.022;2023-02-12T05:40:45;14.13;;;11.00;;
14396;SDS011;50653;47.810;13.022;2023-02-12T05:43:11;14.13;;;9.93;;
14396;SDS011;50653;47.810;13.022;2023-02-12T05:45:37;15.10;;;10.30;;
14396;SDS011;50653;47.810;13.022;2023-02-12T05:48:05;15.97;;;9.73;;
14396;SDS011;50653;47.810;13.022;2023-02-12T05:50:31;12.20;;;8.87;;
14396;SDS011;50653;47.810;13.022;2023-02-12T05:53:01;14.57;;;10.03;;
14396;SDS011;50653;47.810;13.022;2023-02-12T05:55:27;13.43;;;10.17;;
14396;SDS011;50653;47.810;13.022;2023-02-12T05:57:52;22.43;;;13.50;;
14396;SDS011;50653;47.810;13.022;2023-02-12T06:00:18;16.13;;;12.73;;
14396;SDS011;50653;47.810;13.022;2023-02-12T06:02:44;16.60;;;11.90;;
14396;SDS011;50653;47.810;13.022;2023-02-12T06:05:10;22.90;;;13.30;;
14396;SDS011;50653;47.810;13.022;2023-02-12T06:07:35;16.17;;;12.07;;
14396;SDS011;50653;47.810;13.022;2023-02-12T06:10:01;15.63;;;11.90;;
14396;SDS011;50653;47.810;13.022;2023-02-12T06:12:27;16.87;;;12.30;;
14396;SDS011;50653;47.810;13.022;2023-02-12T06:14:53;21.47;;;11.40;;
14396;SDS011;50653;47.810;13.022;2023-02-12T06:17:19;19.30;;;12.50;;
14396;SDS011;50653;47.810;13.022;2023-02-12T06:19:44;17.50;;;12.07;;
14396;SDS011;50653;47.810;13.022;2023-02-12T06:22:10;22.47;;;14.20;;
14396;SDS011;50653;47.810;13.022;2023-02-12T06:24:35;16.97;;;14.33;;
14396;SDS011;50653;47.810;13.022;2023-02-12T06:27:01;16.30;;;12.50;;
14396;SDS011;50653;47.810;13.022;2023-02-12T06:29:27;14.33;;;11.30;;
14396;SDS011;50653;47.810;13.022;2023-02-12T06:31:53;16.50;;;11.23;;
14396;SDS011;50653;47.810;13.022;2023-02-12T06:34:18;17.37;;;11.37;;
14396;SDS011;50653;47.810;13.022;2023-02-12T06:36:44;20.20;;;12.47;;
14396;SDS011;50653;47.810;13.022;2023-02-12T06:39:11;22.10;;;12.27;;
14396;SDS011;50653;47.810;13.022;2023-02-12T06:41:38;15.47;;;11.50;;
14396;SDS011;50653;47.810;13.022;2023-02-12T06:44:04;21.10;;;12.50;;
14396;SDS011;50653;47.810;13.022;2023-02-12T06:46:30;19.60;;;13.17;;
14396;SDS011;50653;47.810;13.022;2023-02-12T06:48:56;22.17;;;12.20;;
14396;SDS011;50653;47.810;13.022;2023-02-12T06:51:24;19.93;;;10.77;;
14396;SDS011;50653;47.810;13.022;2023-02-12T06:53:50;14.37;;;10.43;;
14396;SDS011;50653;47.810;13.022;2023-02-12T06:56:17;23.10;;;11.73;;
14396;SDS011;50653;47.810;13.022;2023-02-12T06:58:44;21.03;;;13.13;;
14396;SDS011;50653;47.810;13.022;2023-02-12T07:01:18;15.73;;;12.17;;
14396;SDS011;50653;47.810;13.022;2023-02-12T07:03:52;20.47;;;13.87;;
14396;SDS011;50653;47.810;13.022;2023-02-12T07:06:22;15.83;;;11.77;;
14396;SDS011;50653;47.810;13.022;2023-02-12T07:08:49;16.80;;;11.50;;
14396;SDS011;50653;47.810;13.022;2023-02-12T07:11:15;17.80;;;11.73;;
14396;SDS011;50653;47.810;13.022;2023-02-12T07:13:41;16.23;;;10.77;;
14396;SDS011;50653;47.810;13.022;2023-02-12T07:16:08;24.10;;;11.23;;
14396;SDS011;50653;47.810;13.022;2023-02-12T07:18:35;15.43;;;11.00;;
14396;SDS011;50653;47.810;13.022;2023-02-12T07:21:02;15.27;;;11.90;;
14396;SDS011;50653;47.810;13.022;2023-02-12T07:23:29;13.27;;;10.67;;
14396;SDS011;50653;47.810;13.022;2023-02-12T07:25:55;16.03;;;10.30;;
14396;SDS011;50653;47.810;13.022;2023-02-12T07:28:25;18.03;;;12.30;;
14396;SDS011;50653;47.810;13.022;2023-02-12T07:30:51;16.53;;;13.20;;
14396;SDS011;50653;47.810;13.022;2023-02-12T07:33:17;19.00;;;12.67;;
14396;SDS011;50653;47.810;13.022;2023-02-12T07:35:43;15.07;;;11.40;;
14396;SDS011;50653;47.810;13.022;2023-02-12T07:38:09;16.93;;;11.10;;
14396;SDS011;50653;47.810;13.022;2023-02-12T07:40:36;13.43;;;10.40;;
14396;SDS011;50653;47.810;13.022;2023-02-12T07:43:01;12.53;;;10.83;;
14396;SDS011;50653;47.810;13.022;2023-02-12T07:45:32;12.80;;;11.50;;
14396;SDS011;50653;47.810;13.022;2023-02-12T07:48:00;14.23;;;10.47;;
14396;SDS011;50653;47.810;13.022;2023-02-12T07:50:26;17.47;;;12.50;;
14396;SDS011;50653;47.810;13.022;2023-02-12T07:52:51;19.30;;;11.80;;
14396;SDS011;50653;47.810;13.022;2023-02-12T07:55:17;19.07;;;12.07;;
14396;SDS011;50653;47.810;13.022;2023-02-12T07:57:43;18.00;;;12.67;;
14396;SDS011;50653;47.810;13.022;2023-02-12T08:00:09;25.07;;;14.43;;
14396;SDS011;50653;47.810;13.022;2023-02-12T08:02:38;16.37;;;12.00;;
14396;SDS011;50653;47.810;13.022;2023-02-12T08:05:04;14.63;;;11.03;;
14396;SDS011;50653;47.810;13.022;2023-02-12T08:07:30;14.90;;;12.50;;
14396;SDS011;50653;47.810;13.022;2023-02-12T08:09:56;19.47;;;12.60;;
14396;SDS011;50653;47.810;13.022;2023-02-12T08:12:25;12.80;;;10.47;;
14396;SDS011;50653;47.810;13.022;2023-02-12T08:14:50;21.50;;;11.73;;
14396;SDS011;50653;47.810;13.022;2023-02-12T08:17:16;16.50;;;11.50;;
14396;SDS011;50653;47.810;13.022;2023-02-12T08:19:41;15.47;;;11.90;;
14396;SDS011;50653;47.810;13.022;2023-02-12T08:22:07;22.00;;;11.70;;
14396;SDS011;50653;47.810;13.022;2023-02-12T08:24:33;16.70;;;12.00;;
14396;SDS011;50653;47.810;13.022;2023-02-12T08:26:58;17.07;;;12.03;;
14396;SDS011;50653;47.810;13.022;2023-02-12T08:29:25;19.90;;;12.73;;
14396;SDS011;50653;47.810;13.022;2023-02-12T08:31:55;20.50;;;11.90;;
14396;SDS011;50653;47.810;13.022;2023-02-12T08:34:23;14.77;;;12.30;;
14396;SDS011;50653;47.810;13.022;2023-02-12T08:36:51;14.03;;;11.57;;
14396;SDS011;50653;47.810;13.022;2023-02-12T08:39:18;25.33;;;13.60;;
14396;SDS011;50653;47.810;13.022;2023-02-12T08:41:45;16.33;;;12.23;;
14396;SDS011;50653;47.810;13.022;2023-02-12T08:44:11;15.57;;;13.07;;
14396;SDS011;50653;47.810;13.022;2023-02-12T08:46:39;17.33;;;12.80;;
14396;SDS011;50653;47.810;13.022;2023-02-12T08:49:11;19.40;;;13.30;;
14396;SDS011;50653;47.810;13.022;2023-02-12T08:51:45;18.00;;;14.90;;
14396;SDS011;50653;47.810;13.022;2023-02-12T08:54:14;22.00;;;13.77;;
14396;SDS011;50653;47.810;13.022;2023-02-12T08:56:41;21.53;;;14.90;;
14396;SDS011;50653;47.810;13.022;2023-02-12T08:59:09;24.13;;;15.50;;
14396;SDS011;50653;47.810;13.022;2023-02-12T09:01:36;20.47;;;13.80;;
14396;SDS011;50653;47.810;13.022;2023-02-12T09:04:03;30.07;;;14.20;;
14396;SDS011;50653;47.810;13.022;2023-02-12T09:06:31;24.47;;;15.50;;
14396;SDS011;50653;47.810;13.022;2023-02-12T09:08:58;23.00;;;14.47;;
14396;SDS011;50653;47.810;13.022;2023-02-12T09:11:24;25.33;;;15.00;;
14396;SDS011;50653;47.810;13.022;2023-02-12T09:13:55;23.10;;;14.57;;
14396;SDS011;50653;47.810;13.022;2023-02-12T09:16:26;21.90;;;15.47;;
14396;SDS011;50653;47.810;13.022;2023-02-12T09:18:52;23.10;;;14.20;;
14396;SDS011;50653;47.810;13.022;2023-02-12T09:21:19;22.10;;;15.60;;
14396;SDS011;50653;47.810;13.022;2023-02-12T09:23:45;21.20;;;14.80;;
14396;SDS011;50653;47.810;13.022;2023-02-12T09:26:14;28.90;;;16.60;;
14396;SDS011;50653;47.810;13.022;2023-02-12T09:28:41;32.10;;;16.60;;
14396;SDS011;50653;47.810;13.022;2023-02-12T09:31:08;23.47;;;15.20;;
14396;SDS011;50653;47.810;13.022;2023-02-12T09:33:35;22.90;;;16.07;;
14396;SDS011;50653;47.810;13.022;2023-02-12T09:36:02;26.23;;;17.63;;
14396;SDS011;50653;47.810;13.022;2023-02-12T09:38:29;22.80;;;16.90;;
14396;SDS011;50653;47.810;13.022;2023-02-12T09:43:57;26.50;;;16.47;;
14396;SDS011;50653;47.810;13.022;2023-02-12T09:46:31;27.40;;;17.57;;
14396;SDS011;50653;47.810;13.022;2023-02-12T09:51:37;33.90;;;17.40;;
14396;SDS011;50653;47.810;13.022;2023-02-12T09:54:05;31.77;;;18.27;;
14396;SDS011;50653;47.810;13.022;2023-02-12T09:56:37;29.30;;;17.10;;
14396;SDS011;50653;47.810;13.022;2023-02-12T09:59:07;37.80;;;21.23;;
14396;SDS011;50653;47.810;13.022;2023-02-12T10:01:34;33.13;;;18.63;;
14396;SDS011;50653;47.810;13.022;2023-02-12T10:04:00;36.57;;;19.47;;
14396;SDS011;50653;47.810;13.022;2023-02-12T10:06:30;30.07;;;20.13;;
14396;SDS011;50653;47.810;13.022;2023-02-12T10:25:52;28.77;;;17.83;;
14396;SDS011;50653;47.810;13.022;2023-02-12T10:28:27;25.73;;;15.37;;
14396;SDS011;50653;47.810;13.022;2023-02-12T10:30:58;21.43;;;15.13;;
14396;SDS011;50653;47.810;13.022;2023-02-12T10:33:28;22.07;;;15.67;;
14396;SDS011;50653;47.810;13.022;2023-02-12T10:38:49;32.17;;;18.87;;
14396;SDS011;50653;47.810;13.022;2023-02-12T10:41:19;27.87;;;17.00;;
14396;SDS011;50653;47.810;13.022;2023-02-12T10:43:47;27.07;;;17.60;;
14396;SDS011;50653;47.810;13.022;2023-02-12T10:46:15;32.77;;;19.50;;
14396;SDS011;50653;47.810;13.022;2023-02-12T10:48:45;23.83;;;16.20;;
14396;SDS011;50653;47.810;13.022;2023-02-12T10:53:53;26.03;;;17.67;;
14396;SDS011;50653;47.810;13.022;2023-02-12T10:56:23;26.57;;;17.33;;
14396;SDS011;50653;47.810;13.022;2023-02-12T11:03:50;22.80;;;15.47;;
14396;SDS011;50653;47.810;13.022;2023-02-12T11:06:20;26.33;;;16.00;;
14396;SDS011;50653;47.810;13.022;2023-02-12T11:08:47;26.13;;;16.10;;
14396;SDS011;50653;47.810;13.022;2023-02-12T11:11:23;32.70;;;19.00;;
14396;SDS011;50653;47.810;13.022;2023-02-12T11:14:15;17.33;;;13.40;;
14396;SDS011;50653;47.810;13.022;2023-02-12T11:16:50;20.73;;;14.83;;
14396;SDS011;50653;47.810;13.022;2023-02-12T11:19:22;21.77;;;14.70;;
14396;SDS011;50653;47.810;13.022;2023-02-12T11:21:49;17.90;;;11.83;;
14396;SDS011;50653;47.810;13.022;2023-02-12T11:24:27;12.90;;;10.87;;
14396;SDS011;50653;47.810;13.022;2023-02-12T11:32:35;13.47;;;9.30;;
14396;SDS011;50653;47.810;13.022;2023-02-12T11:37:53;8.30;;;7.57;;
14396;SDS011;50653;47.810;13.022;2023-02-12T11:40:23;11.97;;;8.03;;
14396;SDS011;50653;47.810;13.022;2023-02-12T11:42:51;7.17;;;6.57;;
14396;SDS011;50653;47.810;13.022;2023-02-12T11:45:21;7.93;;;6.30;;
14396;SDS011;50653;47.810;13.022;2023-02-12T11:47:54;7.60;;;6.80;;
14396;SDS011;50653;47.810;13.022;2023-02-12T11:50:27;8.10;;;6.07;;
14396;SDS011;50653;47.810;13.022;2023-02-12T11:52:58;6.80;;;6.10;;
14396;SDS011;50653;47.810;13.022;2023-02-12T11:55:28;8.93;;;7.20;;
14396;SDS011;50653;47.810;13.022;2023-02-12T12:00:37;3.67;;;3.37;;
14396;SDS011;50653;47.810;13.022;2023-02-12T12:06:02;6.53;;;5.20;;
14396;SDS011;50653;47.810;13.022;2023-02-12T12:08:43;6.60;;;6.00;;
14396;SDS011;50653;47.810;13.022;2023-02-12T12:11:26;1.63;;;1.53;;
14396;SDS011;50653;47.810;13.022;2023-02-12T12:13:58;2.70;;;2.50;;
14396;SDS011;50653;47.810;13.022;2023-02-12T12:16:33;3.77;;;3.47;;
14396;SDS011;50653;47.810;13.022;2023-02-12T12:19:47;6.50;;;4.90;;
14396;SDS011;50653;47.810;13.022;2023-02-12T12:22:25;4.23;;;3.93;;
14396;SDS011;50653;47.810;13.022;2023-02-12T12:25:12;4.47;;;3.97;;
14396;SDS011;50653;47.810;13.022;2023-02-12T12:30:31;4.57;;;4.17;;
14396;SDS011;50653;47.810;13.022;2023-02-12T12:33:20;5.67;;;5.27;;
14396;SDS011;50653;47.810;13.022;2023-02-12T12:36:31;6.73;;;5.63;;
14396;SDS011;50653;47.810;13.022;2023-02-12T12:39:27;7.03;;;6.23;;
14396;SDS011;50653;47.810;13.022;2023-02-12T12:56:11;10.20;;;4.60;;
14396;SDS011;50653;47.810;13.022;2023-02-12T13:04:31;5.70;;;5.00;;
14396;SDS011;50653;47.810;13.022;2023-02-12T13:12:54;9.13;;;7.67;;
14396;SDS011;50653;47.810;13.022;2023-02-12T13:18:23;10.40;;;8.63;;
14396;SDS011;50653;47.810;13.022;2023-02-12T13:23:50;10.40;;;8.83;;
14396;SDS011;50653;47.810;13.022;2023-02-12T13:28:53;13.80;;;9.43;;
14396;SDS011;50653;47.810;13.022;2023-02-12T13:31:21;12.53;;;9.60;;
14396;SDS011;50653;47.810;13.022;2023-02-12T13:33:54;13.13;;;7.63;;
14396;SDS011;50653;47.810;13.022;2023-02-12T13:36:23;10.27;;;7.33;;
14396;SDS011;50653;47.810;13.022;2023-02-12T13:38:51;10.77;;;8.47;;
14396;SDS011;50653;47.810;13.022;2023-02-12T13:41:34;7.33;;;6.60;;
14396;SDS011;50653;47.810;13.022;2023-02-12T13:44:13;9.60;;;6.93;;
14396;SDS011;50653;47.810;13.022;2023-02-12T13:47:11;9.60;;;6.80;;
14396;SDS011;50653;47.810;13.022;2023-02-12T13:52:56;8.83;;;6.60;;
14396;SDS011;50653;47.810;13.022;2023-02-12T13:55:31;7.67;;;6.20;;
14396;SDS011;50653;47.810;13.022;2023-02-12T14:01:11;6.00;;;5.27;;
14396;SDS011;50653;47.810;13.022;2023-02-12T14:07:03;2.93;;;2.67;;
14396;SDS011;50653;47.810;13.022;2023-02-12T14:09:38;4.60;;;3.80;;
14396;SDS011;50653;47.810;13.022;2023-02-12T14:12:13;4.77;;;4.37;;
14396;SDS011;50653;47.810;13.022;2023-02-12T14:14:47;4.93;;;3.77;;
14396;SDS011;50653;47.810;13.022;2023-02-12T14:19:54;4.50;;;4.10;;
14396;SDS011;50653;47.810;13.022;2023-02-12T14:24:55;3.53;;;3.20;;
14396;SDS011;50653;47.810;13.022;2023-02-12T14:37:51;4.87;;;4.47;;
14396;SDS011;50653;47.810;13.022;2023-02-12T14:42:59;7.77;;;6.93;;
14396;SDS011;50653;47.810;13.022;2023-02-12T14:45:30;6.50;;;5.83;;
14396;SDS011;50653;47.810;13.022;2023-02-12T14:47:58;5.27;;;4.77;;
14396;SDS011;50653;47.810;13.022;2023-02-12T14:50:25;7.00;;;5.97;;
14396;SDS011;50653;47.810;13.022;2023-02-12T14:53:02;9.30;;;6.43;;
14396;SDS011;50653;47.810;13.022;2023-02-12T14:55:31;7.77;;;7.00;;
14396;SDS011;50653;47.810;13.022;2023-02-12T14:58:00;8.00;;;7.07;;
14396;SDS011;50653;47.810;13.022;2023-02-12T15:00:30;7.80;;;7.00;;
14396;SDS011;50653;47.810;13.022;2023-02-12T15:08:27;12.47;;;8.17;;
14396;SDS011;50653;47.810;13.022;2023-02-12T15:11:05;9.50;;;7.63;;
14396;SDS011;50653;47.810;13.022;2023-02-12T15:22:13;15.73;;;9.93;;
14396;SDS011;50653;47.810;13.022;2023-02-12T15:24:51;8.27;;;7.50;;
14396;SDS011;50653;47.810;13.022;2023-02-12T15:27:18;12.87;;;8.40;;
14396;SDS011;50653;47.810;13.022;2023-02-12T15:29:45;9.63;;;7.17;;
14396;SDS011;50653;47.810;13.022;2023-02-12T15:32:23;10.47;;;7.43;;
14396;SDS011;50653;47.810;13.022;2023-02-12T15:34:51;8.27;;;7.40;;
14396;SDS011;50653;47.810;13.022;2023-02-12T15:37:20;11.17;;;8.53;;
14396;SDS011;50653;47.810;13.022;2023-02-12T15:39:51;12.53;;;9.07;;
14396;SDS011;50653;47.810;13.022;2023-02-12T15:44:48;15.63;;;9.33;;
14396;SDS011;50653;47.810;13.022;2023-02-12T15:47:14;8.87;;;8.00;;
14396;SDS011;50653;47.810;13.022;2023-02-12T15:49:48;8.70;;;7.70;;
14396;SDS011;50653;47.810;13.022;2023-02-12T15:54:42;9.70;;;8.73;;
14396;SDS011;50653;47.810;13.022;2023-02-12T15:57:12;10.77;;;8.50;;
14396;SDS011;50653;47.810;13.022;2023-02-12T15:59:47;11.70;;;8.97;;
14396;SDS011;50653;47.810;13.022;2023-02-12T16:02:19;8.93;;;7.93;;
14396;SDS011;50653;47.810;13.022;2023-02-12T16:04:49;12.13;;;7.83;;
14396;SDS011;50653;47.810;13.022;2023-02-12T16:07:15;9.30;;;8.33;;
14396;SDS011;50653;47.810;13.022;2023-02-12T16:09:41;12.00;;;10.30;;
14396;SDS011;50653;47.810;13.022;2023-02-12T16:12:10;11.50;;;10.40;;
14396;SDS011;50653;47.810;13.022;2023-02-12T16:14:40;14.05;;;12.10;;
14396;SDS011;50653;47.810;13.022;2023-02-12T16:22:43;11.70;;;10.55;;
14396;SDS011;50653;47.810;13.022;2023-02-12T16:27:50;10.53;;;9.53;;
14396;SDS011;50653;47.810;13.022;2023-02-12T16:30:38;13.40;;;9.43;;
14396;SDS011;50653;47.810;13.022;2023-02-12T16:36:12;12.02;;;10.82;;
14396;SDS011;50653;47.810;13.022;2023-02-12T16:41:15;10.50;;;9.40;;
14396;SDS011;50653;47.810;13.022;2023-02-12T16:43:48;14.10;;;10.80;;
14396;SDS011;50653;47.810;13.022;2023-02-12T16:46:54;10.97;;;8.60;;
14396;SDS011;50653;47.810;13.022;2023-02-12T16:49:22;15.50;;;10.80;;
14396;SDS011;50653;47.810;13.022;2023-02-12T16:51:49;13.13;;;10.70;;
14396;SDS011;50653;47.810;13.022;2023-02-12T16:56:53;14.07;;;11.10;;
14396;SDS011;50653;47.810;13.022;2023-02-12T16:59:19;12.70;;;10.67;;
14396;SDS011;50653;47.810;13.022;2023-02-12T17:01:57;14.23;;;11.97;;
14396;SDS011;50653;47.810;13.022;2023-02-12T17:04:28;12.50;;;10.53;;
14396;SDS011;50653;47.810;13.022;2023-02-12T17:06:54;15.63;;;12.03;;
14396;SDS011;50653;47.810;13.022;2023-02-12T17:09:20;13.57;;;11.30;;
14396;SDS011;50653;47.810;13.022;2023-02-12T17:11:45;15.17;;;11.40;;
14396;SDS011;50653;47.810;13.022;2023-02-12T17:14:15;16.67;;;12.60;;
14396;SDS011;50653;47.810;13.022;2023-02-12T17:16:43;19.13;;;12.90;;
14396;SDS011;50653;47.810;13.022;2023-02-12T17:19:09;18.00;;;12.13;;
14396;SDS011;50653;47.810;13.022;2023-02-12T17:21:36;17.73;;;13.60;;
14396;SDS011;50653;47.810;13.022;2023-02-12T17:24:05;19.90;;;14.50;;
14396;SDS011;50653;47.810;13.022;2023-02-12T17:26:35;21.43;;;15.50;;
14396;SDS011;50653;47.810;13.022;2023-02-12T17:29:00;18.80;;;13.30;;
14396;SDS011;50653;47.810;13.022;2023-02-12T17:31:29;20.33;;;15.23;;
14396;SDS011;50653;47.810;13.022;2023-02-12T17:33:56;18.70;;;15.50;;
14396;SDS011;50653;47.810;13.022;2023-02-12T17:36:22;20.57;;;14.53;;
14396;SDS011;50653;47.810;13.022;2023-02-12T17:38:48;26.33;;;17.27;;
14396;SDS011;50653;47.810;13.022;2023-02-12T17:41:15;23.17;;;16.00;;
14396;SDS011;50653;47.810;13.022;2023-02-12T17:43:40;27.37;;;17.00;;